createdAt,value
2022-09-28T00:01:19.281Z,10.67
2022-09-28T00:03:45.579Z,10.69
2022-09-28T00:06:12.187Z,10.52
2022-09-28T00:08:38.426Z,10.69
2022-09-28T00:11:04.687Z,10.63
2022-09-28T00:13:33.140Z,10.69
2022-09-28T00:15:59.627Z,10.73
2022-09-28T00:18:26.480Z,10.49
2022-09-28T00:20:52.764Z,10.60
2022-09-28T00:23:19.018Z,10.62
2022-09-28T00:25:45.288Z,10.65
2022-09-28T00:28:11.539Z,10.70
2022-09-28T00:30:37.898Z,10.61
2022-09-28T00:33:04.154Z,10.61
2022-09-28T00:35:30.968Z,10.56
2022-09-28T00:37:57.219Z,10.66
2022-09-28T00:40:23.489Z,10.70
2022-09-28T00:42:49.771Z,10.69
2022-09-28T00:45:16.024Z,10.70
2022-09-28T00:47:42.290Z,10.66
2022-09-28T00:50:08.554Z,10.70
2022-09-28T00:52:34.810Z,10.66
2022-09-28T00:55:01.229Z,10.65
2022-09-28T00:57:27.483Z,10.61
2022-09-28T00:59:53.762Z,10.64
2022-09-28T01:02:20.132Z,10.53
2022-09-28T01:04:46.447Z,10.47
2022-09-28T01:07:12.707Z,10.53
2022-09-28T01:09:39.001Z,10.31
2022-09-28T01:12:05.256Z,10.38
2022-09-28T01:14:31.665Z,10.44
2022-09-28T01:16:58.780Z,10.43
2022-09-28T01:19:24.967Z,10.44
2022-09-28T01:21:51.416Z,10.40
2022-09-28T01:24:17.683Z,10.37
2022-09-28T01:26:44.018Z,10.36
2022-09-28T01:29:10.341Z,10.36
2022-09-28T01:31:36.989Z,10.23
2022-09-28T01:34:03.299Z,10.29
2022-09-28T01:36:29.546Z,10.21
2022-09-28T01:38:55.797Z,10.30
2022-09-28T01:41:22.058Z,10.22
2022-09-28T01:43:48.309Z,10.32
2022-09-28T01:46:14.727Z,10.19
2022-09-28T01:48:41.008Z,10.23
2022-09-28T01:51:07.268Z,10.17
2022-09-28T01:53:33.528Z,10.23
2022-09-28T01:55:59.789Z,10.25
2022-09-28T01:58:26.039Z,10.18
2022-09-28T02:00:52.528Z,10.21
2022-09-28T02:03:18.834Z,10.05
2022-09-28T02:05:45.091Z,10.15
2022-09-28T02:08:11.335Z,10.22
2022-09-28T02:10:37.632Z,10.30
2022-09-28T02:13:04.674Z,10.33
2022-09-28T02:15:30.982Z,10.35
2022-09-28T02:17:57.250Z,10.03
2022-09-28T02:20:23.839Z,10.24
2022-09-28T02:22:50.104Z,10.32
2022-09-28T02:25:16.374Z,10.31
2022-09-28T02:27:42.691Z,10.40
2022-09-28T02:30:08.963Z,10.40
2022-09-28T02:32:35.204Z,10.44
2022-09-28T02:35:01.464Z,10.43
2022-09-28T02:37:27.714Z,10.43
2022-09-28T02:39:54.034Z,10.41
2022-09-28T02:42:20.303Z,10.41
2022-09-28T02:44:46.557Z,10.45
2022-09-28T02:47:12.823Z,10.46
2022-09-28T02:49:39.244Z,10.47
2022-09-28T02:52:05.519Z,10.41
2022-09-28T02:54:31.758Z,10.42
2022-09-28T02:56:58.003Z,10.45
2022-09-28T02:59:24.274Z,10.44
2022-09-28T03:01:50.564Z,10.42
2022-09-28T03:04:16.853Z,10.40
2022-09-28T03:06:43.127Z,10.32
2022-09-28T03:09:09.389Z,10.30
2022-09-28T03:11:35.663Z,10.25
2022-09-28T03:14:01.925Z,10.31
2022-09-28T03:16:29.024Z,10.33
2022-09-28T03:18:55.234Z,10.33
2022-09-28T03:21:21.491Z,10.32
2022-09-28T03:23:47.943Z,10.32
2022-09-28T03:26:14.471Z,10.18
2022-09-28T03:28:40.724Z,10.17
2022-09-28T03:31:07.075Z,10.12
2022-09-28T03:33:33.383Z,10.08
2022-09-28T03:35:59.626Z,10.09
2022-09-28T03:38:25.870Z,10.13
2022-09-28T03:40:52.182Z,10.14
2022-09-28T03:43:18.476Z,10.03
2022-09-28T03:45:44.778Z,10.08
2022-09-28T03:48:11.068Z,10.13
2022-09-28T03:50:37.323Z,10.14
2022-09-28T03:53:03.592Z,10.19
2022-09-28T03:55:29.950Z,10.18
2022-09-28T03:57:56.187Z,10.23
2022-09-28T04:00:22.979Z,10.23
2022-09-28T04:02:49.438Z,10.25
2022-09-28T04:05:15.697Z,10.23
2022-09-28T04:07:42.053Z,10.25
2022-09-28T04:10:08.315Z,10.27
2022-09-28T04:12:34.571Z,10.19
2022-09-28T04:15:00.826Z,10.16
2022-09-28T04:17:27.080Z,10.14
2022-09-28T04:19:53.341Z,10.19
2022-09-28T04:22:19.588Z,10.20
2022-09-28T04:24:46.468Z,10.20
2022-09-28T04:27:31.627Z,10.15
2022-09-28T04:29:57.883Z,10.12
2022-09-28T04:32:24.133Z,10.08
2022-09-28T04:34:51.304Z,10.02
2022-09-28T04:37:17.486Z,9.97
2022-09-28T04:39:47.564Z,9.89
2022-09-28T04:42:14.578Z,9.75
2022-09-28T04:44:40.830Z,9.72
2022-09-28T04:47:07.079Z,9.70
2022-09-28T04:49:35.379Z,9.73
2022-09-28T04:52:01.676Z,9.72
2022-09-28T04:54:27.968Z,9.70
2022-09-28T04:56:55.325Z,9.73
2022-09-28T04:59:21.566Z,9.76
2022-09-28T05:01:48.367Z,9.76
2022-09-28T05:04:14.662Z,9.76
2022-09-28T05:06:40.924Z,9.80
2022-09-28T05:09:07.230Z,9.78
2022-09-28T05:11:33.488Z,9.76
2022-09-28T05:13:59.882Z,9.74
2022-09-28T05:16:27.022Z,9.78
2022-09-28T05:18:53.232Z,9.80
2022-09-28T05:21:20.063Z,9.78
2022-09-28T05:23:46.327Z,9.79
2022-09-28T05:26:12.571Z,9.80
2022-09-28T05:28:38.839Z,9.86
2022-09-28T05:31:05.152Z,9.89
2022-09-28T05:33:31.386Z,9.91
2022-09-28T05:36:01.042Z,9.94
2022-09-28T05:38:28.319Z,9.93
2022-09-28T05:40:54.703Z,9.86
2022-09-28T05:43:21.021Z,9.89
2022-09-28T05:45:50.428Z,9.97
2022-09-28T05:48:20.710Z,9.92
2022-09-28T05:50:46.949Z,10.02
2022-09-28T05:53:13.246Z,10.01
2022-09-28T05:55:39.903Z,9.96
2022-09-28T05:58:06.244Z,9.88
2022-09-28T06:00:32.484Z,9.96
2022-09-28T06:02:58.776Z,9.91
2022-09-28T06:05:25.067Z,9.92
2022-09-28T06:07:51.314Z,9.85
2022-09-28T06:10:17.580Z,9.71
2022-09-28T06:12:44.819Z,9.85
2022-09-28T06:15:11.093Z,9.86
2022-09-28T06:17:37.338Z,9.97
2022-09-28T06:20:03.732Z,9.88
2022-09-28T06:22:29.999Z,9.91
2022-09-28T06:24:56.250Z,9.89
2022-09-28T06:27:22.530Z,9.97
2022-09-28T06:29:48.796Z,10.00
2022-09-28T06:32:15.055Z,10.06
2022-09-28T06:34:41.996Z,10.10
2022-09-28T06:37:08.253Z,10.14
2022-09-28T06:39:34.499Z,10.23
2022-09-28T06:42:03.178Z,10.33
2022-09-28T06:44:29.437Z,10.38
2022-09-28T06:46:58.477Z,10.41
2022-09-28T06:49:27.688Z,10.49
2022-09-28T06:51:53.934Z,10.40
2022-09-28T06:54:20.394Z,10.24
2022-09-28T06:56:46.648Z,10.40
2022-09-28T06:59:12.915Z,10.45
2022-09-28T07:01:39.218Z,10.42
2022-09-28T07:04:05.515Z,10.40
2022-09-28T07:06:31.788Z,10.34
2022-09-28T07:09:11.510Z,10.48
2022-09-28T07:11:46.551Z,10.50
2022-09-28T07:14:24.882Z,10.56
2022-09-28T07:17:12.278Z,10.60
2022-09-28T07:19:39.735Z,10.61
2022-09-28T07:22:05.992Z,10.58
2022-09-28T07:24:32.234Z,10.59
2022-09-28T07:26:58.482Z,10.55
2022-09-28T07:29:25.759Z,10.65
2022-09-28T07:31:52.002Z,10.64
2022-09-28T07:34:18.654Z,10.48
2022-09-28T07:36:45.002Z,10.47
2022-09-28T07:39:12.107Z,10.55
2022-09-28T07:41:39.608Z,10.49
2022-09-28T07:44:06.085Z,10.43
2022-09-28T07:46:32.482Z,10.50
2022-09-28T07:48:58.732Z,10.51
2022-09-28T07:51:28.135Z,10.58
2022-09-28T07:53:54.378Z,10.74
2022-09-28T07:56:20.625Z,10.76
2022-09-28T07:58:46.876Z,10.82
2022-09-28T08:01:16.703Z,10.85
2022-09-28T08:03:46.217Z,10.92
2022-09-28T08:06:12.719Z,11.00
2022-09-28T08:08:43.683Z,11.03
2022-09-28T08:11:10.450Z,10.97
2022-09-28T08:13:37.198Z,11.08
2022-09-28T08:16:03.452Z,11.17
2022-09-28T08:18:29.712Z,11.20
2022-09-28T08:21:14.362Z,11.16
2022-09-28T08:23:40.627Z,11.22
2022-09-28T08:26:06.887Z,11.21
2022-09-28T08:28:33.142Z,11.23
2022-09-28T08:30:59.392Z,11.24
2022-09-28T08:33:25.854Z,11.20
2022-09-28T08:35:52.097Z,10.95
2022-09-28T08:38:18.404Z,11.05
2022-09-28T08:40:44.815Z,10.98
2022-09-28T08:43:11.270Z,10.91
2022-09-28T08:45:37.542Z,10.85
2022-09-28T08:48:22.460Z,10.86
2022-09-28T08:50:48.709Z,10.74
2022-09-28T08:53:14.958Z,10.91
2022-09-28T08:55:41.230Z,10.76
2022-09-28T08:58:07.493Z,10.89
2022-09-28T09:00:34.150Z,10.72
2022-09-28T09:03:00.441Z,10.33
2022-09-28T09:05:26.742Z,10.63
2022-09-28T09:07:52.995Z,10.28
2022-09-28T09:10:19.253Z,10.60
2022-09-28T09:12:45.556Z,10.78
2022-09-28T09:15:11.836Z,10.73
2022-09-28T09:17:38.090Z,10.70
2022-09-28T09:20:04.355Z,10.79
2022-09-28T09:22:30.611Z,11.02
2022-09-28T09:24:56.965Z,10.89
2022-09-28T09:27:23.222Z,11.06
2022-09-28T09:29:50.132Z,11.14
2022-09-28T09:32:16.378Z,11.14
2022-09-28T09:34:42.658Z,11.00
2022-09-28T09:37:08.907Z,10.83
2022-09-28T09:39:35.193Z,10.76
2022-09-28T09:42:01.448Z,10.79
2022-09-28T09:44:27.705Z,10.93
2022-09-28T09:46:54.086Z,10.96
2022-09-28T09:49:20.532Z,10.87
2022-09-28T09:51:46.825Z,10.84
2022-09-28T09:54:13.525Z,10.80
2022-09-28T09:56:39.871Z,10.55
2022-09-28T09:59:06.738Z,10.58
2022-09-28T10:01:33.070Z,10.68
2022-09-28T10:03:59.370Z,10.67
2022-09-28T10:06:26.399Z,10.60
2022-09-28T10:08:53.804Z,10.51
2022-09-28T10:11:20.087Z,10.38
2022-09-28T10:13:46.644Z,10.60
2022-09-28T10:16:12.947Z,10.92
2022-09-28T10:18:39.243Z,11.22
2022-09-28T10:21:05.539Z,11.21
2022-09-28T10:23:33.778Z,11.22
2022-09-28T10:26:00.514Z,10.86
2022-09-28T10:28:26.776Z,10.79
2022-09-28T10:30:53.168Z,10.86
2022-09-28T10:33:19.489Z,11.12
2022-09-28T10:35:47.759Z,10.94
2022-09-28T10:38:14.013Z,10.93
2022-09-28T10:40:40.354Z,11.01
2022-09-28T10:43:06.658Z,10.95
2022-09-28T10:45:32.918Z,11.03
2022-09-28T10:48:00.785Z,11.12
2022-09-28T10:50:27.040Z,10.98
2022-09-28T10:52:53.291Z,10.91
2022-09-28T10:55:19.545Z,10.85
2022-09-28T10:57:45.788Z,10.71
2022-09-28T11:00:12.184Z,10.64
2022-09-28T11:02:38.520Z,10.93
2022-09-28T11:05:04.821Z,11.11
2022-09-28T11:07:31.812Z,10.94
2022-09-28T11:09:58.877Z,11.02
2022-09-28T11:12:26.040Z,11.14
2022-09-28T11:14:52.793Z,11.34
2022-09-28T11:17:19.081Z,11.17
2022-09-28T11:19:45.432Z,11.17
2022-09-28T11:22:13.797Z,10.89
2022-09-28T11:24:40.323Z,10.62
2022-09-28T11:27:06.575Z,10.94
2022-09-28T11:29:33.237Z,11.12
2022-09-28T11:31:59.548Z,11.28
2022-09-28T11:34:41.825Z,11.47
2022-09-28T11:37:15.886Z,11.62
2022-09-28T11:39:42.138Z,12.17
2022-09-28T11:42:10.957Z,12.69
2022-09-28T11:44:39.272Z,12.87
2022-09-28T11:47:05.567Z,12.60
2022-09-28T11:49:31.851Z,13.11
2022-09-28T11:51:58.142Z,13.25
2022-09-28T11:54:26.064Z,13.00
2022-09-28T11:56:52.321Z,12.66
2022-09-28T11:59:18.575Z,12.48
2022-09-28T12:01:44.867Z,12.92
2022-09-28T12:04:11.185Z,12.72
2022-09-28T12:06:37.514Z,12.85
2022-09-28T12:09:03.767Z,12.77
2022-09-28T12:11:30.326Z,12.44
2022-09-28T12:13:57.384Z,12.86
2022-09-28T12:16:45.658Z,12.73
2022-09-28T12:19:09.857Z,12.42
2022-09-28T12:21:36.118Z,12.45
2022-09-28T12:24:02.384Z,12.42
2022-09-28T12:26:29.112Z,12.43
2022-09-28T12:28:56.786Z,12.21
2022-09-28T12:31:23.121Z,11.95
2022-09-28T12:33:49.424Z,11.93
2022-09-28T12:36:16.009Z,12.22
2022-09-28T12:38:42.284Z,12.54
2022-09-28T12:41:10.617Z,12.19
2022-09-28T12:43:36.867Z,12.15
2022-09-28T12:46:18.253Z,12.54
2022-09-28T12:48:45.942Z,12.45
2022-09-28T12:51:16.590Z,12.24
2022-09-28T12:53:42.830Z,12.53
2022-09-28T12:56:09.138Z,12.22
2022-09-28T12:58:36.602Z,12.32
2022-09-28T13:01:02.858Z,12.30
2022-09-28T13:03:31.055Z,12.53
2022-09-28T13:05:57.333Z,12.53
2022-09-28T13:08:23.590Z,12.22
2022-09-28T13:10:50.168Z,12.24
2022-09-28T13:13:16.426Z,12.47
2022-09-28T13:15:42.737Z,12.27
2022-09-28T13:18:09.019Z,12.25
2022-09-28T13:20:35.679Z,12.26
2022-09-28T13:23:02.268Z,12.28
2022-09-28T13:25:28.528Z,12.11
2022-09-28T13:27:54.805Z,11.82
2022-09-28T13:30:21.053Z,11.91
2022-09-28T13:32:47.542Z,12.16
2022-09-28T13:35:13.939Z,12.51
2022-09-28T13:37:40.690Z,12.16
2022-09-28T13:40:07.263Z,12.08
2022-09-28T13:42:33.518Z,12.12
2022-09-28T13:45:00.133Z,12.08
2022-09-28T13:47:26.452Z,12.08
2022-09-28T13:49:52.699Z,12.02
2022-09-28T13:52:18.961Z,11.87
2022-09-28T13:54:45.251Z,11.95
2022-09-28T13:57:11.490Z,11.62
2022-09-28T13:59:37.751Z,11.79
2022-09-28T14:02:06.938Z,11.86
2022-09-28T14:04:33.626Z,12.14
2022-09-28T14:06:59.894Z,12.24
2022-09-28T14:09:26.163Z,12.00
2022-09-28T14:11:52.428Z,11.92
2022-09-28T14:14:18.697Z,12.05
2022-09-28T14:16:44.964Z,12.15
2022-09-28T14:19:11.280Z,12.26
2022-09-28T14:21:37.828Z,11.86
2022-09-28T14:24:04.080Z,12.03
2022-09-28T14:26:30.395Z,11.65
2022-09-28T14:28:56.640Z,11.61
2022-09-28T14:31:22.941Z,11.92
2022-09-28T14:33:49.286Z,11.65
2022-09-28T14:36:35.547Z,11.73
2022-09-28T14:39:20.432Z,11.08
2022-09-28T14:41:46.741Z,11.12
2022-09-28T14:44:13.000Z,11.66
2022-09-28T14:46:40.323Z,11.76
2022-09-28T14:49:06.635Z,12.09
2022-09-28T14:51:34.876Z,12.35
2022-09-28T14:54:01.138Z,12.64
2022-09-28T14:56:32.493Z,12.27
2022-09-28T14:58:59.112Z,11.87
2022-09-28T15:01:25.432Z,11.88
2022-09-28T15:03:52.203Z,12.20
2022-09-28T15:06:19.995Z,12.33
2022-09-28T15:08:46.251Z,11.98
2022-09-28T15:11:12.511Z,12.13
2022-09-28T15:13:40.619Z,12.31
2022-09-28T15:16:06.833Z,11.95
2022-09-28T15:18:33.207Z,12.24
2022-09-28T15:20:59.463Z,12.37
2022-09-28T15:23:25.982Z,12.41
2022-09-28T15:25:52.244Z,12.16
2022-09-28T15:28:18.497Z,11.95
2022-09-28T15:30:45.661Z,11.99
2022-09-28T15:33:30.759Z,12.15
2022-09-28T15:35:57.012Z,11.99
2022-09-28T15:38:23.273Z,11.87
2022-09-28T15:40:49.584Z,11.96
2022-09-28T15:43:15.908Z,11.42
2022-09-28T15:45:44.048Z,11.48
2022-09-28T15:48:11.575Z,11.59
2022-09-28T15:50:38.176Z,11.48
2022-09-28T15:53:04.424Z,11.63
2022-09-28T15:55:30.673Z,11.78
2022-09-28T15:57:56.924Z,11.41
2022-09-28T16:00:23.232Z,11.68
2022-09-28T16:02:49.587Z,11.89
2022-09-28T16:05:15.887Z,11.97
2022-09-28T16:07:42.126Z,11.71
2022-09-28T16:10:08.366Z,11.77
2022-09-28T16:12:34.712Z,11.66
2022-09-28T16:15:01.017Z,11.61
2022-09-28T16:17:31.335Z,11.50
2022-09-28T16:19:57.591Z,11.43
2022-09-28T16:22:28.117Z,11.57
2022-09-28T16:24:55.640Z,11.59
2022-09-28T16:27:21.892Z,11.56
2022-09-28T16:29:48.138Z,11.65
2022-09-28T16:32:14.749Z,11.83
2022-09-28T16:34:41.011Z,11.87
2022-09-28T16:37:07.264Z,11.82
2022-09-28T16:39:33.520Z,11.83
2022-09-28T16:41:59.804Z,11.75
2022-09-28T16:44:26.107Z,11.83
2022-09-28T16:46:53.815Z,11.85
2022-09-28T16:49:20.206Z,11.83
2022-09-28T16:51:46.792Z,11.65
2022-09-28T16:54:31.824Z,11.76
2022-09-28T16:56:58.178Z,11.77
2022-09-28T16:59:24.523Z,11.53
2022-09-28T17:01:50.865Z,11.66
2022-09-28T17:04:17.191Z,11.67
2022-09-28T17:06:43.485Z,11.63
2022-09-28T17:09:09.753Z,11.51
2022-09-28T17:11:36.019Z,11.65
2022-09-28T17:14:03.790Z,11.68
2022-09-28T17:19:17.786Z,11.69
2022-09-28T17:21:44.313Z,11.69
2022-09-28T17:24:10.563Z,11.67
2022-09-28T17:26:36.802Z,11.67
2022-09-28T17:29:03.076Z,11.69
2022-09-28T17:31:29.340Z,11.70
2022-09-28T17:33:55.625Z,11.66
2022-09-28T17:36:21.876Z,11.69
2022-09-28T17:38:48.199Z,11.71
2022-09-28T17:41:19.390Z,11.70
2022-09-28T17:43:46.606Z,11.48
2022-09-28T17:46:12.918Z,11.56
2022-09-28T17:48:39.207Z,11.58
2022-09-28T17:51:05.588Z,11.58
2022-09-28T17:53:31.852Z,11.57
2022-09-28T17:55:58.103Z,11.49
2022-09-28T17:58:24.391Z,11.45
2022-09-28T18:00:50.643Z,11.38
2022-09-28T18:03:16.911Z,11.38
2022-09-28T18:05:43.164Z,11.31
2022-09-28T18:08:09.452Z,11.24
2022-09-28T18:10:35.706Z,11.19
2022-09-28T18:13:01.957Z,11.13
2022-09-28T18:15:28.265Z,11.09
2022-09-28T18:17:57.700Z,10.98
2022-09-28T18:20:23.958Z,10.94
2022-09-28T18:22:50.299Z,10.88
2022-09-28T18:25:16.599Z,10.81
2022-09-28T18:27:43.123Z,10.76
2022-09-28T18:30:09.403Z,10.52
2022-09-28T18:32:36.816Z,10.62
2022-09-28T18:35:03.070Z,10.52
2022-09-28T18:37:29.314Z,10.55
2022-09-28T18:39:55.578Z,10.51
2022-09-28T18:42:21.830Z,10.14
2022-09-28T18:44:48.087Z,10.38
2022-09-28T18:47:15.013Z,10.42
2022-09-28T18:49:45.909Z,10.32
2022-09-28T18:52:12.896Z,10.40
2022-09-28T18:54:40.190Z,10.42
2022-09-28T18:57:06.443Z,10.41
2022-09-28T18:59:32.792Z,10.21
2022-09-28T19:02:01.245Z,10.30
2022-09-28T19:04:27.538Z,10.32
2022-09-28T19:06:54.340Z,10.34
2022-09-28T19:09:20.779Z,10.33
2022-09-28T19:11:47.060Z,10.16
2022-09-28T19:14:15.152Z,10.13
2022-09-28T19:16:41.335Z,9.98
2022-09-28T19:19:07.609Z,9.90
2022-09-28T19:21:33.925Z,9.90
2022-09-28T19:24:00.243Z,9.82
2022-09-28T19:26:27.254Z,9.77
2022-09-28T19:28:53.499Z,9.78
2022-09-28T19:31:19.752Z,9.69
2022-09-28T19:33:46.427Z,9.67
2022-09-28T19:36:13.172Z,9.49
2022-09-28T19:38:39.409Z,9.60
2022-09-28T19:41:05.680Z,9.58
2022-09-28T19:43:31.975Z,9.60
2022-09-28T19:45:58.278Z,9.57
2022-09-28T19:48:26.148Z,9.40
2022-09-28T19:50:53.104Z,9.40
2022-09-28T19:53:19.379Z,9.39
2022-09-28T19:55:45.630Z,9.40
2022-09-28T19:58:12.108Z,9.20
2022-09-28T20:00:38.365Z,9.24
2022-09-28T20:03:04.752Z,9.11
2022-09-28T20:05:31.100Z,9.10
2022-09-28T20:07:57.402Z,9.01
2022-09-28T20:10:23.675Z,8.79
2022-09-28T20:12:49.916Z,8.99
2022-09-28T20:15:16.501Z,8.94
2022-09-28T20:17:42.756Z,9.04
2022-09-28T20:20:09.044Z,9.02
2022-09-28T20:22:35.307Z,8.99
2022-09-28T20:25:02.671Z,8.95
2022-09-28T20:27:28.932Z,8.92
2022-09-28T20:29:55.212Z,8.90
2022-09-28T20:32:21.467Z,8.92
2022-09-28T20:34:47.727Z,8.93
2022-09-28T20:37:17.117Z,8.91
2022-09-28T20:39:45.112Z,8.78
2022-09-28T20:42:11.560Z,8.80
2022-09-28T20:44:37.810Z,8.75
2022-09-28T20:47:04.062Z,8.73
2022-09-28T20:49:31.646Z,8.66
2022-09-28T20:51:57.922Z,8.00
2022-09-28T20:54:24.564Z,8.27
2022-09-28T20:56:50.843Z,8.10
2022-09-28T20:59:17.108Z,8.31
2022-09-28T21:01:43.344Z,8.40
2022-09-28T21:04:09.645Z,8.41
2022-09-28T21:06:35.896Z,8.40
2022-09-28T21:09:02.091Z,8.07
2022-09-28T21:11:28.281Z,8.25
2022-09-28T21:13:54.539Z,8.19
2022-09-28T21:16:20.728Z,8.25
2022-09-28T21:18:46.934Z,8.26
2022-09-28T21:21:13.116Z,8.26
2022-09-28T21:23:39.430Z,8.25
2022-09-28T21:26:05.732Z,8.15
2022-09-28T21:28:32.076Z,8.18
2022-09-28T21:30:58.421Z,8.14
2022-09-28T21:33:24.643Z,8.14
2022-09-28T21:35:50.900Z,8.15
2022-09-28T21:38:17.078Z,7.83
2022-09-28T21:40:43.950Z,7.99
2022-09-28T21:43:10.328Z,8.00
2022-09-28T21:45:38.260Z,8.01
2022-09-28T21:48:04.584Z,7.91
2022-09-28T21:50:30.875Z,7.77
2022-09-28T21:52:57.081Z,7.59
2022-09-28T21:55:23.262Z,7.66
2022-09-28T21:57:50.679Z,7.79
2022-09-28T22:00:23.210Z,7.55
2022-09-28T22:02:49.485Z,7.67
2022-09-28T22:05:15.756Z,7.63
2022-09-28T22:07:42.267Z,7.71
2022-09-28T22:10:08.450Z,7.36
2022-09-28T22:12:34.665Z,7.59
2022-09-28T22:15:00.851Z,7.64
2022-09-28T22:17:27.140Z,7.58
2022-09-28T22:19:53.355Z,7.64
2022-09-28T22:22:19.534Z,7.65
2022-09-28T22:24:45.720Z,7.64
2022-09-28T22:27:11.894Z,7.61
2022-09-28T22:29:38.084Z,7.57
2022-09-28T22:32:04.279Z,7.57
2022-09-28T22:34:31.655Z,7.58
2022-09-28T22:36:57.927Z,7.24
2022-09-28T22:39:24.151Z,7.26
2022-09-28T22:41:50.342Z,7.10
2022-09-28T22:44:16.623Z,7.27
2022-09-28T22:46:42.929Z,7.22
2022-09-28T22:49:09.390Z,7.20
2022-09-28T22:51:35.562Z,7.26
2022-09-28T22:54:01.815Z,7.23
2022-09-28T22:56:27.992Z,7.28
2022-09-28T22:58:54.184Z,7.35
2022-09-28T23:01:20.910Z,7.39
2022-09-28T23:03:47.195Z,7.37
2022-09-28T23:06:13.431Z,7.28
2022-09-28T23:08:39.632Z,7.24
2022-09-28T23:11:05.829Z,7.29
2022-09-28T23:13:32.359Z,7.23
2022-09-28T23:15:58.637Z,7.11
2022-09-28T23:18:24.856Z,7.26
2022-09-28T23:20:51.052Z,7.05
2022-09-28T23:23:17.473Z,7.17
2022-09-28T23:25:43.663Z,7.20
2022-09-28T23:28:09.848Z,7.16
2022-09-28T23:30:36.054Z,7.04
2022-09-28T23:33:02.235Z,7.15
2022-09-28T23:35:28.568Z,6.98
2022-09-28T23:37:54.751Z,7.05
2022-09-28T23:40:20.988Z,7.04
2022-09-28T23:42:47.175Z,7.14
2022-09-28T23:45:13.642Z,7.15
2022-09-28T23:47:39.842Z,7.17
2022-09-28T23:50:06.034Z,7.17
2022-09-28T23:52:32.215Z,7.14
2022-09-28T23:54:58.528Z,7.13
2022-09-28T23:57:25.293Z,7.05
2022-09-28T23:59:51.486Z,7.07
